Time;durP1;ratioP1;P1;durP2;ratioP2;P2;SDS_P1;SDS_P2;PMS_P1;PMS_P2;Temp;Humidity;BMP_temperature;BMP_pressure;BME280_temperature;BME280_humidity;BME280_pressure;Samples;Min_cycle;Max_cycle;Signal;HPM_P1;HPM_P2
2023/05/27 00:00:18;;;;;;;18.25;4.97;;;;;;;;;;5031362;28;20045;-73
2023/05/27 00:02:44;;;;;;;24.60;5.35;;;;;;;;;;5032476;28;20107;-73
2023/05/27 00:05:10;;;;;;;17.02;5.30;;;;;;;;;;5031685;28;20533;-73
2023/05/27 00:07:36;;;;;;;16.83;4.53;;;;;;;;;;5035311;28;20378;-73
2023/05/27 00:10:02;;;;;;;16.65;4.53;;;;;;;;;;5052173;28;20558;-73
2023/05/27 00:12:28;;;;;;;16.50;4.68;;;;;;;;;;5041005;28;20414;-73
2023/05/27 00:14:54;;;;;;;14.77;5.10;;;;;;;;;;5031067;28;20046;-73
2023/05/27 00:17:20;;;;;;;18.48;5.38;;;;;;;;;;5012390;28;20076;-73
2023/05/27 00:19:47;;;;;;;17.75;5.30;;;;;;;;;;5031497;28;20052;-73
2023/05/27 00:22:15;;;;;;;15.85;4.97;;;;;;;;;;5014310;28;20049;-73
2023/05/27 00:24:41;;;;;;;16.20;5.20;;;;;;;;;;5032229;28;20050;-72
2023/05/27 00:27:07;;;;;;;20.17;5.20;;;;;;;;;;5014230;28;20073;-72
2023/05/27 00:29:33;;;;;;;17.10;5.22;;;;;;;;;;5031977;28;20379;-73
2023/05/27 00:32:03;;;;;;;20.98;5.80;;;;;;;;;;5013808;28;20161;-72
2023/05/27 00:34:29;;;;;;;19.58;5.20;;;;;;;;;;5031879;28;20045;-72
2023/05/27 00:36:56;;;;;;;19.92;4.97;;;;;;;;;;5041501;28;20127;-72
2023/05/27 00:39:22;;;;;;;16.98;5.40;;;;;;;;;;5051823;28;20048;-73
2023/05/27 00:41:50;;;;;;;25.30;6.22;;;;;;;;;;5018059;28;20379;-72
2023/05/27 00:44:16;;;;;;;22.05;5.40;;;;;;;;;;5030641;28;20042;-73
2023/05/27 00:46:42;;;;;;;15.77;6.07;;;;;;;;;;5031348;28;20052;-73
2023/05/27 00:49:08;;;;;;;20.42;5.97;;;;;;;;;;5030867;28;20042;-73
2023/05/27 00:51:35;;;;;;;20.33;5.88;;;;;;;;;;5031993;28;20493;-72
2023/05/27 00:54:01;;;;;;;16.13;5.32;;;;;;;;;;5047319;28;20470;-72
2023/05/27 00:56:27;;;;;;;18.20;5.30;;;;;;;;;;5052451;28;20056;-73
2023/05/27 00:58:53;;;;;;;20.92;5.43;;;;;;;;;;5051955;28;20041;-72
2023/05/27 01:01:19;;;;;;;17.08;4.90;;;;;;;;;;5053281;28;20095;-72
2023/05/27 01:03:47;;;;;;;21.65;6.10;;;;;;;;;;5035342;28;20050;-72
2023/05/27 01:06:12;;;;;;;18.05;4.88;;;;;;;;;;5034064;28;20037;-72
2023/05/27 01:08:46;;;;;;;15.50;4.75;;;;;;;;;;5033937;28;20116;-72
2023/05/27 01:11:13;;;;;;;18.42;5.35;;;;;;;;;;5017200;28;20042;-72
2023/05/27 01:14:00;;;;;;;21.88;5.75;;;;;;;;;;5017585;28;20452;-72
2023/05/27 01:16:30;;;;;;;19.55;5.53;;;;;;;;;;5017145;28;20042;-73
2023/05/27 01:18:59;;;;;;;23.20;6.22;;;;;;;;;;5034662;28;20056;-73
2023/05/27 01:21:30;;;;;;;21.70;5.97;;;;;;;;;;5034745;28;20088;-73
2023/05/27 01:24:02;;;;;;;20.05;5.50;;;;;;;;;;5033113;28;20042;-72
2023/05/27 01:26:28;;;;;;;19.67;5.38;;;;;;;;;;5017352;28;20063;-73
2023/05/27 01:28:55;;;;;;;19.10;5.13;;;;;;;;;;5034678;28;20124;-73
2023/05/27 01:31:23;;;;;;;22.38;5.30;;;;;;;;;;5034257;28;20142;-72
2023/05/27 01:34:10;;;;;;;22.33;5.60;;;;;;;;;;5034520;28;20045;-72
2023/05/27 01:36:35;;;;;;;;;;;;;;;;;;5019716;28;20121;-72
2023/05/27 01:39:02;;;;;;;16.75;5.20;;;;;;;;;;5034663;28;20452;-72
2023/05/27 01:41:28;;;;;;;18.80;5.28;;;;;;;;;;5017119;28;20037;-73
2023/05/27 01:43:55;;;;;;;20.13;5.20;;;;;;;;;;5034182;28;20045;-72
2023/05/27 01:46:21;;;;;;;23.15;5.75;;;;;;;;;;5016792;28;20045;-73
2023/05/27 01:48:47;;;;;;;20.00;5.40;;;;;;;;;;5016259;28;20056;-73
2023/05/27 01:51:13;;;;;;;17.27;5.05;;;;;;;;;;5016455;28;20472;-73
2023/05/27 01:53:39;;;;;;;24.25;5.80;;;;;;;;;;5016726;28;20437;-73
2023/05/27 01:56:05;;;;;;;24.52;5.53;;;;;;;;;;5034102;28;20132;-73
2023/05/27 01:58:31;;;;;;;17.42;5.60;;;;;;;;;;5016163;28;20514;-73
2023/05/27 02:00:57;;;;;;;15.77;5.22;;;;;;;;;;5016216;28;20048;-73
2023/05/27 02:03:23;;;;;;;14.80;5.20;;;;;;;;;;5034095;28;20100;-73
2023/05/27 02:05:50;;;;;;;16.48;5.00;;;;;;;;;;5034392;28;20046;-72
2023/05/27 02:08:16;;;;;;;18.42;5.20;;;;;;;;;;5033956;28;20098;-73
2023/05/27 02:10:42;;;;;;;22.90;5.63;;;;;;;;;;5033933;28;20440;-73
2023/05/27 02:13:08;;;;;;;16.98;4.78;;;;;;;;;;5033201;28;20128;-73
2023/05/27 02:15:34;;;;;;;17.90;5.25;;;;;;;;;;5032566;28;20049;-73
2023/05/27 02:18:00;;;;;;;23.73;5.43;;;;;;;;;;5032278;28;20490;-73
2023/05/27 02:20:27;;;;;;;21.10;5.05;;;;;;;;;;5032345;28;20135;-73
2023/05/27 02:22:53;;;;;;;21.35;6.05;;;;;;;;;;5033400;28;20041;-73
2023/05/27 02:25:19;;;;;;;18.00;5.22;;;;;;;;;;5034137;28;20048;-72
2023/05/27 02:27:48;;;;;;;21.17;5.28;;;;;;;;;;5032335;28;20045;-73
2023/05/27 02:30:14;;;;;;;21.60;5.60;;;;;;;;;;5033889;28;20052;-73
2023/05/27 02:32:41;;;;;;;16.35;4.85;;;;;;;;;;5033127;28;20046;-73
2023/05/27 02:35:07;;;;;;;19.90;5.05;;;;;;;;;;5033937;28;20041;-73
2023/05/27 02:37:33;;;;;;;18.98;5.25;;;;;;;;;;5033671;28;20103;-71
2023/05/27 02:39:59;;;;;;;17.77;5.35;;;;;;;;;;5033405;28;20041;-71
2023/05/27 02:42:25;;;;;;;15.63;5.13;;;;;;;;;;5015650;28;20041;-72
2023/05/27 02:44:51;;;;;;;21.15;5.60;;;;;;;;;;5016301;28;20494;-72
2023/05/27 02:47:17;;;;;;;18.70;5.20;;;;;;;;;;5033613;28;20160;-72
2023/05/27 02:49:43;;;;;;;26.33;5.57;;;;;;;;;;5014905;28;20128;-72
2023/05/27 02:52:10;;;;;;;23.23;5.20;;;;;;;;;;5033122;28;20442;-72
2023/05/27 02:54:36;;;;;;;20.83;5.22;;;;;;;;;;5015677;28;20045;-72
2023/05/27 02:57:02;;;;;;;21.33;5.53;;;;;;;;;;5032102;28;20041;-72
2023/05/27 02:59:28;;;;;;;17.77;5.00;;;;;;;;;;5032860;28;20072;-72
2023/05/27 03:01:54;;;;;;;16.95;5.32;;;;;;;;;;5032770;28;20084;-71
2023/05/27 03:04:21;;;;;;;19.40;5.25;;;;;;;;;;5015398;28;20081;-72
2023/05/27 03:06:47;;;;;;;18.48;5.38;;;;;;;;;;5015367;28;20092;-72
2023/05/27 03:09:14;;;;;;;22.48;5.30;;;;;;;;;;5032769;28;20060;-72
2023/05/27 03:11:40;;;;;;;16.60;4.75;;;;;;;;;;5031311;28;20049;-72
2023/05/27 03:14:06;;;;;;;15.98;4.68;;;;;;;;;;5032920;28;20398;-72
2023/05/27 03:16:32;;;;;;;22.23;5.55;;;;;;;;;;5033241;28;20410;-72
2023/05/27 03:18:58;;;;;;;17.05;5.20;;;;;;;;;;5031981;28;20045;-72
2023/05/27 03:21:24;;;;;;;21.88;5.25;;;;;;;;;;5032797;28;20124;-72
2023/05/27 03:23:50;;;;;;;20.95;6.13;;;;;;;;;;5014822;28;20057;-72
2023/05/27 03:26:16;;;;;;;19.02;5.10;;;;;;;;;;5014797;28;20038;-72
2023/05/27 03:28:42;;;;;;;16.23;5.30;;;;;;;;;;5014702;28;20077;-72
2023/05/27 03:31:08;;;;;;;20.50;5.43;;;;;;;;;;5014226;28;20073;-72
2023/05/27 03:33:34;;;;;;;21.48;5.53;;;;;;;;;;5014877;28;20260;-71
2023/05/27 03:36:00;;;;;;;23.50;5.82;;;;;;;;;;5031504;28;20050;-72
2023/05/27 03:38:26;;;;;;;17.25;4.95;;;;;;;;;;5033149;28;20127;-72
2023/05/27 03:40:52;;;;;;;20.80;5.57;;;;;;;;;;5046758;28;20390;-72
2023/05/27 03:43:18;;;;;;;19.83;5.22;;;;;;;;;;5031586;28;20143;-72
2023/05/27 03:45:44;;;;;;;17.73;4.75;;;;;;;;;;5032689;28;20428;-72
2023/05/27 03:48:10;;;;;;;16.17;4.97;;;;;;;;;;5031240;28;20124;-72
2023/05/27 03:50:37;;;;;;;19.75;5.07;;;;;;;;;;5031953;28;20060;-72
2023/05/27 03:53:03;;;;;;;16.73;4.95;;;;;;;;;;5014496;28;20053;-72
2023/05/27 03:55:29;;;;;;;17.85;4.80;;;;;;;;;;5014649;28;20042;-72
2023/05/27 03:57:55;;;;;;;20.15;4.90;;;;;;;;;;5014536;28;20152;-72
2023/05/27 04:00:21;;;;;;;23.38;5.22;;;;;;;;;;5032032;28;20041;-72
2023/05/27 04:02:47;;;;;;;21.17;5.03;;;;;;;;;;5031925;28;20406;-72
2023/05/27 04:05:13;;;;;;;23.02;5.28;;;;;;;;;;5032185;28;20140;-72
2023/05/27 04:07:39;;;;;;;18.27;5.20;;;;;;;;;;5032051;28;20046;-72
2023/05/27 04:10:05;;;;;;;18.40;5.22;;;;;;;;;;5031175;28;20052;-72
2023/05/27 04:12:31;;;;;;;18.67;5.70;;;;;;;;;;5013593;28;20123;-72
2023/05/27 04:14:57;;;;;;;24.25;5.22;;;;;;;;;;5012304;28;20446;-72
2023/05/27 04:17:23;;;;;;;21.92;4.95;;;;;;;;;;5031498;28;20041;-71
2023/05/27 04:19:49;;;;;;;18.40;5.18;;;;;;;;;;5030408;28;20037;-71
2023/05/27 04:22:15;;;;;;;18.63;5.25;;;;;;;;;;5014090;28;20052;-72
2023/05/27 04:24:43;;;;;;;20.00;5.43;;;;;;;;;;5030872;28;20052;-72
2023/05/27 04:27:09;;;;;;;18.80;4.95;;;;;;;;;;5014523;28;20050;-72
2023/05/27 04:29:36;;;;;;;21.73;5.30;;;;;;;;;;5030437;28;20038;-72
2023/05/27 04:32:02;;;;;;;15.27;4.68;;;;;;;;;;5014524;28;20052;-72
2023/05/27 04:34:28;;;;;;;24.08;5.40;;;;;;;;;;5030425;28;20478;-72
2023/05/27 04:36:55;;;;;;;19.25;5.65;;;;;;;;;;5034525;28;20061;-73
2023/05/27 04:39:21;;;;;;;17.55;4.90;;;;;;;;;;5034307;28;20045;-72
2023/05/27 04:41:47;;;;;;;16.92;4.95;;;;;;;;;;5032161;28;20393;-72
2023/05/27 04:44:13;;;;;;;17.23;5.05;;;;;;;;;;5034134;28;20060;-72
2023/05/27 04:46:40;;;;;;;18.98;5.32;;;;;;;;;;5035091;28;20041;-72
2023/05/27 04:49:06;;;;;;;20.33;5.40;;;;;;;;;;5035491;28;20037;-72
2023/05/27 04:51:32;;;;;;;20.38;5.25;;;;;;;;;;5017477;28;20148;-72
2023/05/27 04:53:58;;;;;;;18.77;4.93;;;;;;;;;;5035037;28;20478;-72
2023/05/27 04:56:24;;;;;;;16.33;4.85;;;;;;;;;;5017755;28;20053;-72
2023/05/27 04:58:50;;;;;;;17.70;4.90;;;;;;;;;;5017372;28;20046;-72
2023/05/27 05:01:21;;;;;;;14.52;4.95;;;;;;;;;;5035218;28;20050;-72
2023/05/27 05:04:12;;;;;;;17.75;4.88;;;;;;;;;;5035027;28;20115;-72
2023/05/27 05:06:38;;;;;;;17.83;4.60;;;;;;;;;;5033067;28;20053;-72
2023/05/27 05:09:04;;;;;;;18.33;4.50;;;;;;;;;;5017025;28;20068;-74
2023/05/27 05:11:30;;;;;;;21.67;5.28;;;;;;;;;;5035146;28;20045;-72
2023/05/27 05:13:57;;;;;;;17.15;4.65;;;;;;;;;;5034827;28;20042;-72
2023/05/27 05:16:23;;;;;;;14.85;4.47;;;;;;;;;;5034750;28;20049;-72
2023/05/27 05:18:50;;;;;;;23.00;5.10;;;;;;;;;;5016255;28;20045;-73
2023/05/27 05:21:16;;;;;;;18.90;5.10;;;;;;;;;;5023698;28;20487;-72
2023/05/27 05:23:42;;;;;;;16.75;4.78;;;;;;;;;;5055065;28;20044;-72
2023/05/27 05:26:08;;;;;;;19.52;5.18;;;;;;;;;;5041889;28;20049;-73
2023/05/27 05:28:35;;;;;;;17.95;5.20;;;;;;;;;;5033685;28;20089;-73
2023/05/27 05:31:01;;;;;;;21.80;5.00;;;;;;;;;;5031545;28;20046;-72
2023/05/27 05:33:27;;;;;;;18.50;5.40;;;;;;;;;;5034965;28;20045;-73
2023/05/27 05:35:53;;;;;;;19.30;5.20;;;;;;;;;;5033929;28;20133;-72
2023/05/27 05:38:19;;;;;;;19.38;4.97;;;;;;;;;;5048032;28;20082;-72
2023/05/27 05:40:49;;;;;;;14.88;4.53;;;;;;;;;;5054852;28;20401;-72
2023/05/27 05:43:15;;;;;;;20.55;5.35;;;;;;;;;;5036537;28;20489;-73
2023/05/27 05:45:41;;;;;;;20.67;5.57;;;;;;;;;;5054881;28;20151;-72
2023/05/27 05:48:07;;;;;;;16.17;4.75;;;;;;;;;;5053100;28;20057;-72
2023/05/27 05:50:33;;;;;;;20.88;5.13;;;;;;;;;;5054445;28;20122;-72
2023/05/27 05:52:59;;;;;;;22.33;5.60;;;;;;;;;;5053441;28;20444;-72
2023/05/27 05:55:25;;;;;;;20.27;4.85;;;;;;;;;;5022159;28;20482;-72
2023/05/27 05:57:51;;;;;;;18.95;4.93;;;;;;;;;;5016457;28;20046;-72
2023/05/27 06:00:18;;;;;;;19.98;5.40;;;;;;;;;;5016828;28;20055;-72
2023/05/27 06:02:44;;;;;;;21.23;4.82;;;;;;;;;;5033837;28;20045;-72
2023/05/27 06:05:10;;;;;;;21.33;5.43;;;;;;;;;;5031467;28;20061;-72
2023/05/27 06:07:36;;;;;;;20.65;4.68;;;;;;;;;;5033938;28;20056;-72
2023/05/27 06:10:02;;;;;;;15.77;4.63;;;;;;;;;;5033002;28;20052;-72
2023/05/27 06:12:28;;;;;;;24.42;5.32;;;;;;;;;;5016536;28;20057;-73
2023/05/27 06:14:54;;;;;;;20.85;4.88;;;;;;;;;;5034140;28;20053;-73
2023/05/27 06:17:20;;;;;;;20.42;5.13;;;;;;;;;;5034022;28;20034;-72
2023/05/27 06:19:46;;;;;;;20.02;5.03;;;;;;;;;;5016231;28;20100;-72
2023/05/27 06:22:12;;;;;;;18.55;5.03;;;;;;;;;;5034203;28;20049;-73
2023/05/27 06:24:38;;;;;;;21.85;5.03;;;;;;;;;;5033810;28;20095;-72
2023/05/27 06:27:04;;;;;;;21.77;5.10;;;;;;;;;;5034071;28;20098;-72
2023/05/27 06:29:30;;;;;;;21.52;5.10;;;;;;;;;;5015941;28;20498;-72
2023/05/27 06:31:56;;;;;;;20.58;4.95;;;;;;;;;;5033959;28;20052;-72
2023/05/27 06:34:22;;;;;;;22.50;5.35;;;;;;;;;;5016300;28;20128;-73
2023/05/27 06:36:48;;;;;;;16.77;5.15;;;;;;;;;;5033947;28;20041;-72
2023/05/27 06:39:15;;;;;;;25.60;5.18;;;;;;;;;;5033710;28;20053;-72
2023/05/27 06:41:41;;;;;;;18.40;5.05;;;;;;;;;;5016000;28;20494;-73
2023/05/27 06:44:07;;;;;;;22.90;5.15;;;;;;;;;;5033660;28;20049;-72
2023/05/27 06:46:33;;;;;;;18.17;5.05;;;;;;;;;;5016179;28;20490;-72
2023/05/27 06:48:59;;;;;;;18.42;5.68;;;;;;;;;;5032362;28;20684;-72
2023/05/27 06:51:26;;;;;;;16.63;4.70;;;;;;;;;;5031868;28;20045;-72
2023/05/27 06:53:53;;;;;;;17.15;4.93;;;;;;;;;;5032026;28;20056;-72
2023/05/27 06:56:19;;;;;;;30.13;5.43;;;;;;;;;;5033553;28;20053;-72
2023/05/27 06:58:46;;;;;;;22.70;5.43;;;;;;;;;;5015079;28;20141;-72
2023/05/27 07:01:12;;;;;;;20.05;5.90;;;;;;;;;;5032006;28;20053;-72
2023/05/27 07:03:38;;;;;;;18.80;5.70;;;;;;;;;;5029951;28;20050;-72
2023/05/27 07:06:05;;;;;;;22.90;5.35;;;;;;;;;;5033262;28;20071;-72
2023/05/27 07:08:31;;;;;;;19.02;5.25;;;;;;;;;;5033270;28;20051;-72
2023/05/27 07:10:57;;;;;;;22.98;5.10;;;;;;;;;;5033036;28;20037;-72
2023/05/27 07:13:23;;;;;;;16.90;4.97;;;;;;;;;;5032918;28;20044;-72
2023/05/27 07:15:50;;;;;;;19.83;5.13;;;;;;;;;;5017880;28;20124;-72
2023/05/27 07:18:16;;;;;;;22.35;4.95;;;;;;;;;;5038575;28;20060;-72
2023/05/27 07:20:42;;;;;;;19.25;4.85;;;;;;;;;;5026108;28;20045;-72
2023/05/27 07:23:09;;;;;;;20.05;5.15;;;;;;;;;;5042028;28;20430;-72
2023/05/27 07:25:35;;;;;;;16.25;4.90;;;;;;;;;;5031935;28;20053;-72
2023/05/27 07:28:01;;;;;;;18.77;4.95;;;;;;;;;;5032753;28;20501;-72
2023/05/27 07:30:27;;;;;;;20.85;5.05;;;;;;;;;;5014747;28;20509;-72
2023/05/27 07:32:54;;;;;;;18.45;4.93;;;;;;;;;;5032667;28;20057;-72
2023/05/27 07:35:20;;;;;;;20.38;5.20;;;;;;;;;;5031970;28;20144;-72
2023/05/27 07:37:46;;;;;;;17.80;5.07;;;;;;;;;;5014957;28;20072;-73
2023/05/27 07:40:12;;;;;;;20.83;5.10;;;;;;;;;;5032930;28;20052;-72
2023/05/27 07:42:38;;;;;;;21.10;4.88;;;;;;;;;;5032796;28;20089;-73
2023/05/27 07:45:05;;;;;;;15.27;5.15;;;;;;;;;;5015123;28;20521;-72
2023/05/27 07:47:31;;;;;;;23.30;4.63;;;;;;;;;;5032472;28;20053;-73
2023/05/27 07:49:57;;;;;;;21.13;5.40;;;;;;;;;;5032580;28;20045;-72
2023/05/27 07:52:23;;;;;;;20.30;5.25;;;;;;;;;;5031473;28;20056;-73
2023/05/27 07:54:49;;;;;;;21.27;5.40;;;;;;;;;;5031183;28;20041;-72
2023/05/27 07:57:16;;;;;;;20.63;5.18;;;;;;;;;;5032655;28;20107;-72
2023/05/27 07:59:43;;;;;;;18.15;5.30;;;;;;;;;;5032305;28;20045;-73
2023/05/27 08:02:09;;;;;;;16.65;5.13;;;;;;;;;;5014944;28;20057;-73
2023/05/27 08:04:36;;;;;;;19.52;5.40;;;;;;;;;;5035095;28;20052;-72
2023/05/27 08:07:02;;;;;;;17.90;4.88;;;;;;;;;;5044738;28;20057;-72
2023/05/27 08:09:28;;;;;;;15.23;5.10;;;;;;;;;;5032426;28;20041;-72
2023/05/27 08:11:54;;;;;;;18.67;5.03;;;;;;;;;;5034467;28;20175;-72
2023/05/27 08:14:20;;;;;;;16.98;5.68;;;;;;;;;;5035244;28;20073;-73
2023/05/27 08:16:46;;;;;;;16.25;5.00;;;;;;;;;;5034982;28;20045;-72
2023/05/27 08:19:12;;;;;;;15.98;4.93;;;;;;;;;;5035321;28;20056;-72
2023/05/27 08:21:38;;;;;;;19.63;5.20;;;;;;;;;;5041582;28;20462;-72
2023/05/27 08:24:05;;;;;;;19.58;5.15;;;;;;;;;;5052492;28;20045;-73
2023/05/27 08:26:31;;;;;;;16.77;4.78;;;;;;;;;;5035467;28;20517;-72
2023/05/27 08:28:57;;;;;;;20.38;5.15;;;;;;;;;;5035771;28;20091;-73
2023/05/27 08:31:23;;;;;;;21.40;5.18;;;;;;;;;;5034637;28;20049;-71
2023/05/27 08:33:49;;;;;;;20.23;5.32;;;;;;;;;;5034636;28;20486;-71
2023/05/27 08:36:17;;;;;;;17.90;5.43;;;;;;;;;;5035779;28;20041;-71
2023/05/27 08:38:43;;;;;;;20.80;5.63;;;;;;;;;;5035954;28;20502;-72
2023/05/27 08:41:09;;;;;;;18.38;4.90;;;;;;;;;;5035546;28;20041;-73
2023/05/27 08:43:38;;;;;;;14.93;4.60;;;;;;;;;;5035620;28;20080;-73
2023/05/27 08:46:04;;;;;;;18.05;4.95;;;;;;;;;;5034778;28;20433;-73
2023/05/27 08:48:32;;;;;;;15.00;4.70;;;;;;;;;;5035485;28;20041;-73
2023/05/27 08:50:59;;;;;;;16.33;4.63;;;;;;;;;;5017855;28;20160;-71
2023/05/27 08:53:26;;;;;;;19.67;5.78;;;;;;;;;;5032674;28;20100;-71
2023/05/27 08:55:52;;;;;;;16.65;4.90;;;;;;;;;;5034018;28;20041;-71
2023/05/27 08:58:18;;;;;;;20.55;5.07;;;;;;;;;;5035409;28;20055;-71
2023/05/27 09:00:44;;;;;;;27.77;5.57;;;;;;;;;;5035600;28;20354;-71
2023/05/27 09:03:11;;;;;;;17.13;4.95;;;;;;;;;;5033990;28;20049;-71
2023/05/27 09:05:37;;;;;;;19.50;5.00;;;;;;;;;;5035341;28;20123;-71
2023/05/27 09:08:03;;;;;;;15.68;5.07;;;;;;;;;;5034166;28;20374;-71
2023/05/27 09:10:36;;;;;;;16.05;4.65;;;;;;;;;;5035148;28;20045;-71
2023/05/27 09:13:02;;;;;;;16.10;4.85;;;;;;;;;;5035059;28;20427;-71
2023/05/27 09:15:28;;;;;;;17.48;4.88;;;;;;;;;;5034277;28;20049;-71
2023/05/27 09:17:54;;;;;;;16.70;4.97;;;;;;;;;;5032424;28;20107;-71
2023/05/27 09:20:25;;;;;;;18.08;5.03;;;;;;;;;;5035358;28;20112;-71
2023/05/27 09:22:56;;;;;;;15.60;4.40;;;;;;;;;;5016869;28;20490;-70
2023/05/27 09:25:24;;;;;;;14.10;4.53;;;;;;;;;;5035097;28;20584;-71
2023/05/27 09:27:50;;;;;;;16.27;4.82;;;;;;;;;;5034200;28;20425;-71
2023/05/27 09:30:19;;;;;;;14.57;4.93;;;;;;;;;;5035163;28;20492;-70
2023/05/27 09:32:46;;;;;;;14.63;4.35;;;;;;;;;;5017017;28;20037;-70
2023/05/27 09:35:12;;;;;;;16.58;4.80;;;;;;;;;;5035249;28;20050;-71
2023/05/27 09:37:39;;;;;;;15.10;4.57;;;;;;;;;;5035067;28;20045;-71
2023/05/27 09:40:06;;;;;;;18.27;4.57;;;;;;;;;;5034915;28;20041;-72
2023/05/27 09:42:46;;;;;;;15.88;4.40;;;;;;;;;;5033252;28;20355;-71
2023/05/27 09:45:16;;;;;;;14.45;5.30;;;;;;;;;;5033697;28;20068;-71
2023/05/27 09:47:43;;;;;;;15.07;4.55;;;;;;;;;;5016893;28;20045;-72
2023/05/27 09:50:09;;;;;;;15.25;4.50;;;;;;;;;;5034259;28;20046;-67
2023/05/27 09:52:39;;;;;;;14.25;4.60;;;;;;;;;;5033183;28;20050;-67
2023/05/27 09:55:07;;;;;;;15.35;4.15;;;;;;;;;;5016792;28;20128;-67
2023/05/27 09:57:33;;;;;;;14.02;4.20;;;;;;;;;;5034384;28;20045;-67
2023/05/27 10:00:00;;;;;;;18.17;4.90;;;;;;;;;;5033295;28;20041;-67
2023/05/27 10:02:26;;;;;;;14.27;4.65;;;;;;;;;;5034396;28;20075;-67
2023/05/27 10:04:53;;;;;;;14.27;4.50;;;;;;;;;;5034001;28;20055;-67
2023/05/27 10:07:21;;;;;;;16.73;4.93;;;;;;;;;;5034499;28;20057;-68
2023/05/27 10:09:47;;;;;;;16.10;5.05;;;;;;;;;;5032644;28;20080;-68
2023/05/27 10:12:15;;;;;;;15.82;5.32;;;;;;;;;;5030383;28;20107;-68
2023/05/27 10:14:44;;;;;;;15.05;4.80;;;;;;;;;;5033679;28;20486;-68
2023/05/27 10:17:10;;;;;;;14.57;4.82;;;;;;;;;;5032906;28;20056;-68
2023/05/27 10:19:36;;;;;;;16.60;5.13;;;;;;;;;;5013879;28;20099;-68
2023/05/27 10:22:11;;;;;;;14.82;4.43;;;;;;;;;;5015199;28;20045;-68
2023/05/27 10:24:40;;;;;;;15.30;4.75;;;;;;;;;;5033748;28;20045;-68
2023/05/27 10:27:06;;;;;;;15.88;4.82;;;;;;;;;;5033531;28;20489;-67
2023/05/27 10:29:37;;;;;;;14.80;4.95;;;;;;;;;;5015819;28;20046;-67
2023/05/27 10:32:03;;;;;;;17.23;5.13;;;;;;;;;;5033969;28;20088;-67
2023/05/27 10:34:42;;;;;;;17.13;4.60;;;;;;;;;;5032445;28;20068;-67
2023/05/27 10:37:10;;;;;;;14.75;4.57;;;;;;;;;;5016027;28;20128;-67
2023/05/27 10:39:36;;;;;;;14.32;5.22;;;;;;;;;;5012226;28;20091;-67
2023/05/27 10:42:02;;;;;;;15.35;4.80;;;;;;;;;;5012713;28;20136;-67
2023/05/27 10:44:32;;;;;;;17.67;4.75;;;;;;;;;;5031690;28;20049;-67
2023/05/27 10:47:02;;;;;;;12.88;4.70;;;;;;;;;;5031459;28;20447;-67
2023/05/27 10:49:35;;;;;;;14.02;4.82;;;;;;;;;;5014937;28;20553;-67
2023/05/27 10:52:06;;;;;;;14.02;4.70;;;;;;;;;;5033757;28;20041;-67
2023/05/27 10:54:35;;;;;;;11.77;4.20;;;;;;;;;;5032906;28;20466;-68
2023/05/27 10:57:02;;;;;;;15.65;5.50;;;;;;;;;;5033645;28;20401;-70
2023/05/27 10:59:33;;;;;;;13.80;4.75;;;;;;;;;;5031903;28;20548;-70
2023/05/27 11:02:03;;;;;;;14.52;4.88;;;;;;;;;;5033032;28;20037;-69
2023/05/27 11:04:35;;;;;;;12.40;4.63;;;;;;;;;;5031621;28;20065;-69
2023/05/27 11:07:01;;;;;;;10.43;4.20;;;;;;;;;;5015454;28;20045;-69
2023/05/27 11:09:27;;;;;;;11.27;4.43;;;;;;;;;;5015251;28;20532;-69
2023/05/27 11:11:56;;;;;;;11.13;4.10;;;;;;;;;;5015288;28;20081;-68
2023/05/27 11:14:22;;;;;;;14.43;4.40;;;;;;;;;;5015327;28;20041;-68
2023/05/27 11:16:51;;;;;;;12.88;4.28;;;;;;;;;;5031572;28;20543;-67
2023/05/27 11:19:18;;;;;;;10.30;4.40;;;;;;;;;;5022428;28;20045;-67
2023/05/27 11:21:50;;;;;;;10.85;4.00;;;;;;;;;;5032484;28;20179;-67
2023/05/27 11:24:21;;;;;;;12.05;4.55;;;;;;;;;;5032787;28;20052;-71
2023/05/27 11:26:48;;;;;;;14.65;4.47;;;;;;;;;;5014744;28;20072;-70
2023/05/27 11:29:14;;;;;;;9.80;3.83;;;;;;;;;;5032338;28;20053;-71
2023/05/27 11:31:41;;;;;;;11.63;4.70;;;;;;;;;;5014930;28;20061;-70
2023/05/27 11:34:18;;;;;;;13.95;4.43;;;;;;;;;;5031303;28;20041;-71
2023/05/27 11:36:45;;;;;;;10.88;4.15;;;;;;;;;;5032689;28;20054;-72
2023/05/27 11:39:16;;;;;;;10.32;3.97;;;;;;;;;;5032595;28;20041;-71
2023/05/27 11:41:53;;;;;;;11.82;4.30;;;;;;;;;;5032574;28;20045;-72
2023/05/27 11:44:19;;;;;;;11.35;3.95;;;;;;;;;;5032762;28;20053;-72
2023/05/27 11:46:46;;;;;;;10.60;4.03;;;;;;;;;;5013897;28;20394;-71
2023/05/27 11:49:17;;;;;;;13.88;4.20;;;;;;;;;;5013371;28;20119;-71
2023/05/27 11:51:47;;;;;;;10.15;4.38;;;;;;;;;;5013600;28;20045;-72
2023/05/27 11:54:20;;;;;;;10.15;3.88;;;;;;;;;;5014886;28;20125;-72
2023/05/27 11:56:46;;;;;;;10.52;3.92;;;;;;;;;;5031523;28;20080;-71
2023/05/27 11:59:13;;;;;;;11.35;4.15;;;;;;;;;;5032424;28;20172;-72
2023/05/27 12:01:39;;;;;;;10.48;4.30;;;;;;;;;;5032417;28;20050;-71
2023/05/27 12:04:05;;;;;;;10.43;4.00;;;;;;;;;;5032373;28;20088;-72
2023/05/27 12:06:32;;;;;;;11.68;4.40;;;;;;;;;;5031537;28;20080;-71
2023/05/27 12:08:58;;;;;;;11.52;4.00;;;;;;;;;;5032613;28;20449;-71
2023/05/27 12:11:24;;;;;;;10.18;4.10;;;;;;;;;;5032481;28;20049;-71
2023/05/27 12:13:51;;;;;;;9.60;4.00;;;;;;;;;;5032160;28;20084;-71
2023/05/27 12:16:17;;;;;;;10.90;4.30;;;;;;;;;;5032491;28;20056;-71
2023/05/27 12:18:43;;;;;;;9.85;3.97;;;;;;;;;;5014007;28;20088;-71
2023/05/27 12:21:09;;;;;;;12.82;3.70;;;;;;;;;;5029854;28;20041;-71
2023/05/27 12:23:35;;;;;;;13.95;4.10;;;;;;;;;;5015059;28;20564;-71
2023/05/27 12:26:02;;;;;;;11.73;4.07;;;;;;;;;;5032405;28;20049;-71
2023/05/27 12:28:28;;;;;;;10.45;4.00;;;;;;;;;;5032095;28;20049;-72
2023/05/27 12:30:54;;;;;;;10.02;3.80;;;;;;;;;;5032238;28;20457;-72
2023/05/27 12:33:20;;;;;;;11.45;4.28;;;;;;;;;;5032037;28;20038;-71
2023/05/27 12:35:46;;;;;;;14.13;5.10;;;;;;;;;;5014695;28;20128;-72
2023/05/27 12:38:12;;;;;;;9.52;4.22;;;;;;;;;;5014414;28;20065;-72
2023/05/27 12:40:38;;;;;;;13.43;4.45;;;;;;;;;;5031894;28;20072;-72
2023/05/27 12:43:04;;;;;;;12.10;4.32;;;;;;;;;;5030684;28;20037;-72
2023/05/27 12:45:30;;;;;;;12.98;4.60;;;;;;;;;;5031077;28;20048;-71
2023/05/27 12:47:56;;;;;;;11.82;4.35;;;;;;;;;;5014211;28;20053;-71
2023/05/27 12:50:22;;;;;;;13.15;4.97;;;;;;;;;;5032163;28;20120;-72
2023/05/27 12:52:51;;;;;;;13.43;4.40;;;;;;;;;;5031893;28;20050;-71
2023/05/27 12:55:17;;;;;;;14.00;4.38;;;;;;;;;;5032147;28;20056;-71
2023/05/27 12:57:47;;;;;;;14.25;5.03;;;;;;;;;;5016259;28;20049;-72
2023/05/27 13:00:13;;;;;;;12.98;5.15;;;;;;;;;;5035718;28;20128;-71
2023/05/27 13:02:39;;;;;;;13.73;5.00;;;;;;;;;;5035373;28;20365;-71
2023/05/27 13:05:08;;;;;;;16.55;4.97;;;;;;;;;;5034222;28;20053;-72
2023/05/27 13:07:35;;;;;;;14.40;5.10;;;;;;;;;;5035671;28;20383;-72
2023/05/27 13:10:05;;;;;;;15.00;4.63;;;;;;;;;;5033991;28;20041;-71
2023/05/27 13:12:32;;;;;;;13.23;4.63;;;;;;;;;;5017608;28;20057;-71
2023/05/27 13:15:03;;;;;;;14.38;5.20;;;;;;;;;;5034005;28;20405;-72
2023/05/27 13:17:29;;;;;;;13.98;5.05;;;;;;;;;;5017353;28;20049;-71
2023/05/27 13:19:56;;;;;;;16.15;5.30;;;;;;;;;;5034978;28;20065;-72
2023/05/27 13:22:22;;;;;;;13.50;4.80;;;;;;;;;;5034705;28;20049;-72
2023/05/27 13:24:48;;;;;;;13.80;5.20;;;;;;;;;;5035064;28;20037;-72
2023/05/27 13:27:14;;;;;;;13.93;5.05;;;;;;;;;;5031923;28;20049;-71
2023/05/27 13:29:41;;;;;;;16.05;5.57;;;;;;;;;;5033037;28;20044;-73
2023/05/27 13:32:08;;;;;;;12.30;4.85;;;;;;;;;;5033921;28;20437;-72
2023/05/27 13:34:34;;;;;;;14.23;5.00;;;;;;;;;;5013668;28;20437;-72
2023/05/27 13:37:01;;;;;;;12.60;4.93;;;;;;;;;;5016138;28;20534;-71
2023/05/27 13:39:27;;;;;;;12.45;4.78;;;;;;;;;;5034806;28;20087;-72
2023/05/27 13:41:53;;;;;;;13.82;5.10;;;;;;;;;;5016798;28;20152;-72
2023/05/27 13:44:19;;;;;;;14.10;5.03;;;;;;;;;;5034604;28;20110;-72
2023/05/27 13:46:45;;;;;;;14.88;4.60;;;;;;;;;;5034716;28;20049;-72
2023/05/27 13:49:11;;;;;;;13.52;4.80;;;;;;;;;;5034706;28;20080;-72
2023/05/27 13:51:45;;;;;;;14.65;4.97;;;;;;;;;;5016746;28;20502;-72
2023/05/27 13:54:11;;;;;;;15.45;5.13;;;;;;;;;;5034723;28;20033;-72
2023/05/27 13:56:37;;;;;;;13.05;4.80;;;;;;;;;;5034757;28;20112;-72
2023/05/27 13:59:04;;;;;;;13.25;4.72;;;;;;;;;;5034469;28;20057;-72
2023/05/27 14:01:30;;;;;;;15.07;5.10;;;;;;;;;;5033115;28;20037;-72
2023/05/27 14:03:56;;;;;;;18.17;5.65;;;;;;;;;;5016778;28;20195;-72
2023/05/27 14:06:23;;;;;;;15.90;5.20;;;;;;;;;;5016960;28;20483;-72
2023/05/27 14:08:49;;;;;;;17.23;5.45;;;;;;;;;;5033353;28;20038;-72
2023/05/27 14:11:15;;;;;;;13.35;4.70;;;;;;;;;;5034164;28;20096;-73
2023/05/27 14:13:41;;;;;;;14.50;4.78;;;;;;;;;;5034286;28;20453;-73
2023/05/27 14:16:07;;;;;;;12.90;4.93;;;;;;;;;;5032916;28;20099;-72
2023/05/27 14:18:34;;;;;;;12.63;4.82;;;;;;;;;;5033736;28;20061;-72
2023/05/27 14:21:00;;;;;;;12.68;4.60;;;;;;;;;;5033515;28;20049;-72
2023/05/27 14:23:26;;;;;;;17.65;5.05;;;;;;;;;;5016468;28;20405;-72
2023/05/27 14:25:52;;;;;;;16.67;5.38;;;;;;;;;;5032752;28;20124;-72
2023/05/27 14:28:18;;;;;;;15.85;4.70;;;;;;;;;;5031905;28;20077;-72